createdAt,value
2016-06-12T00:00:06.042Z,98.76
2016-06-12T00:00:16.042Z,98.47
2016-06-12T00:00:26.058Z,98.47
2016-06-12T00:00:36.061Z,98.66
2016-06-12T00:00:46.061Z,98.66
2016-06-12T00:00:56.076Z,98.95
2016-06-12T00:01:06.076Z,98.86
2016-06-12T00:01:16.076Z,98.95
2016-06-12T00:01:26.092Z,98.86
2016-06-12T00:01:36.095Z,98.95
2016-06-12T00:01:46.095Z,98.95
2016-06-12T00:01:56.095Z,98.95
2016-06-12T00:02:06.111Z,98.86
2016-06-12T00:02:16.111Z,98.76
2016-06-12T00:02:26.126Z,98.86
2016-06-12T00:02:36.129Z,99.15
2016-06-12T00:02:46.145Z,98.95
2016-06-12T00:02:56.129Z,98.86
2016-06-12T00:03:06.145Z,99.52
2016-06-12T00:03:16.145Z,99.62
2016-06-12T00:03:26.145Z,99.72
2016-06-12T00:03:36.163Z,99.52
2016-06-12T00:03:46.163Z,99.52
2016-06-12T00:03:56.179Z,99.24
2016-06-12T00:04:06.179Z,99.33
2016-06-12T00:04:16.179Z,99.62
2016-06-12T00:04:26.570Z,99.72
2016-06-12T00:04:36.198Z,99.52
2016-06-12T00:04:46.198Z,99.43
2016-06-12T00:04:56.432Z,99.72
2016-06-12T00:05:06.198Z,99.62
2016-06-12T00:05:16.213Z,99.62
2016-06-12T00:05:26.229Z,99.62
2016-06-12T00:05:36.216Z,99.62
2016-06-12T00:05:46.232Z,99.52
2016-06-12T00:05:56.232Z,99.72
2016-06-12T00:06:06.232Z,99.62
2016-06-12T00:06:16.248Z,99.62
2016-06-12T00:06:26.248Z,99.52
2016-06-12T00:06:36.252Z,99.81
2016-06-12T00:06:46.267Z,99.52
2016-06-12T00:06:56.267Z,99.52
2016-06-12T00:07:06.267Z,99.72
2016-06-12T00:07:16.283Z,99.62
2016-06-12T00:07:26.283Z,99.81
2016-06-12T00:07:36.286Z,99.43
2016-06-12T00:07:46.286Z,99.15
2016-06-12T00:07:56.301Z,99.81
2016-06-12T00:08:06.301Z,99.52
2016-06-12T00:08:16.301Z,99.43
2016-06-12T00:08:26.317Z,99.72
2016-06-12T00:08:36.345Z,99.24
2016-06-12T00:08:46.361Z,99.15
2016-06-12T00:08:56.361Z,99.24
2016-06-12T00:09:06.361Z,99.24
2016-06-12T00:09:16.361Z,99.52
2016-06-12T00:09:26.376Z,99.24
2016-06-12T00:09:36.418Z,99.24
2016-06-12T00:09:46.418Z,99.33
2016-06-12T00:09:56.434Z,99.24
2016-06-12T00:10:06.434Z,99.52
2016-06-12T00:10:16.434Z,99.33
2016-06-12T00:10:26.450Z,99.33
2016-06-12T00:10:36.491Z,99.43
2016-06-12T00:10:46.491Z,99.43
2016-06-12T00:10:56.506Z,99.62
2016-06-12T00:11:06.506Z,99.52
2016-06-12T00:11:16.506Z,99.52
2016-06-12T00:11:26.506Z,99.33
2016-06-12T00:11:36.563Z,99.43
2016-06-12T00:11:46.563Z,99.33
2016-06-12T00:11:56.563Z,99.33
2016-06-12T00:12:06.578Z,99.24
2016-06-12T00:12:16.578Z,99.43
2016-06-12T00:12:26.578Z,99.62
2016-06-12T00:12:36.635Z,99.43
2016-06-12T00:12:46.635Z,99.24
2016-06-12T00:12:56.635Z,99.52
2016-06-12T00:13:06.651Z,99.05
2016-06-12T00:13:16.651Z,99.05
2016-06-12T00:13:26.651Z,99.62
2016-06-12T00:13:36.691Z,99.52
2016-06-12T00:13:46.691Z,98.86
2016-06-12T00:13:56.691Z,98.86
2016-06-12T00:14:06.707Z,99.05
2016-06-12T00:14:16.707Z,98.86
2016-06-12T00:14:26.707Z,99.15
2016-06-12T00:14:36.739Z,99.05
2016-06-12T00:14:46.739Z,99.15
2016-06-12T00:14:56.739Z,99.43
2016-06-12T00:15:06.754Z,99.52
2016-06-12T00:15:16.754Z,99.43
2016-06-12T00:15:26.770Z,99.05
2016-06-12T00:15:36.788Z,98.86
2016-06-12T00:15:46.788Z,98.86
2016-06-12T00:15:56.803Z,98.86
2016-06-12T00:16:06.788Z,98.86
2016-06-12T00:16:16.803Z,98.76
2016-06-12T00:16:26.803Z,99.05
2016-06-12T00:16:36.819Z,98.95
2016-06-12T00:16:46.835Z,98.66
2016-06-12T00:16:56.835Z,98.86
2016-06-12T00:17:06.835Z,98.66
2016-06-12T00:17:16.851Z,98.38
2016-06-12T00:17:26.851Z,98.38
2016-06-12T00:17:36.868Z,99.05
2016-06-12T00:17:46.868Z,99.24
2016-06-12T00:17:56.883Z,99.15
2016-06-12T00:18:06.883Z,99.15
2016-06-12T00:18:16.899Z,99.43
2016-06-12T00:18:26.899Z,99.05
2016-06-12T00:18:36.910Z,99.43
2016-06-12T00:18:46.910Z,99.52
2016-06-12T00:18:56.926Z,99.33
2016-06-12T00:19:07.004Z,99.43
2016-06-12T00:19:16.926Z,99.72
2016-06-12T00:19:26.941Z,99.52
2016-06-12T00:19:37.230Z,99.43
2016-06-12T00:19:46.949Z,99.62
2016-06-12T00:19:56.965Z,99.62
2016-06-12T00:20:06.965Z,99.62
2016-06-12T00:20:17.215Z,99.91
2016-06-12T00:20:26.980Z,99.91
2016-06-12T00:20:36.988Z,99.99
2016-06-12T00:20:46.988Z,99.99
2016-06-12T00:20:57.004Z,99.99
2016-06-12T00:21:07.004Z,99.99
2016-06-12T00:21:17.004Z,99.99
2016-06-12T00:21:27.020Z,99.99
2016-06-12T00:21:37.028Z,99.99
2016-06-12T00:21:47.028Z,99.99
2016-06-12T00:21:57.028Z,99.99
2016-06-12T00:22:07.043Z,99.99
2016-06-12T00:22:17.043Z,99.99
2016-06-12T00:22:27.043Z,99.99
2016-06-12T00:22:37.067Z,99.99
2016-06-12T00:22:47.067Z,99.99
2016-06-12T00:22:57.083Z,99.99
2016-06-12T00:23:07.083Z,99.99
2016-06-12T00:23:17.083Z,99.99
2016-06-12T00:23:27.083Z,99.99
2016-06-12T00:23:37.104Z,99.99
2016-06-12T00:23:47.104Z,99.99
2016-06-12T00:23:57.104Z,99.99
2016-06-12T00:24:07.120Z,99.99
2016-06-12T00:24:17.120Z,99.99
2016-06-12T00:24:27.120Z,99.99
2016-06-12T00:24:37.125Z,99.99
2016-06-12T00:24:47.140Z,99.99
2016-06-12T00:24:57.140Z,99.99
2016-06-12T00:25:07.140Z,99.99
2016-06-12T00:25:17.156Z,99.99
2016-06-12T00:25:27.172Z,99.99
2016-06-12T00:25:37.161Z,99.99
2016-06-12T00:25:47.177Z,99.99
2016-06-12T00:25:57.177Z,99.99
2016-06-12T00:26:07.177Z,99.99
2016-06-12T00:26:17.192Z,99.99
2016-06-12T00:26:27.192Z,99.99
2016-06-12T00:26:37.197Z,99.99
2016-06-12T00:26:47.213Z,99.99
2016-06-12T00:26:57.213Z,99.99
2016-06-12T00:27:07.213Z,99.99
2016-06-12T00:27:17.229Z,99.99
2016-06-12T00:27:27.229Z,99.99
2016-06-12T00:27:37.234Z,99.99
2016-06-12T00:27:47.249Z,99.99
2016-06-12T00:27:57.249Z,99.99
2016-06-12T00:28:07.249Z,99.99
2016-06-12T00:28:17.249Z,99.99
2016-06-12T00:28:27.265Z,99.99
2016-06-12T00:28:37.269Z,99.99
2016-06-12T00:28:47.269Z,99.99
2016-06-12T00:28:57.284Z,99.99
2016-06-12T00:29:07.284Z,99.99
2016-06-12T00:29:17.284Z,99.99
2016-06-12T00:29:27.300Z,99.99
2016-06-12T00:29:37.304Z,99.99
2016-06-12T00:29:47.304Z,99.99
2016-06-12T00:29:57.320Z,99.99
2016-06-12T00:30:07.320Z,99.99
2016-06-12T00:30:17.320Z,99.99
2016-06-12T00:30:27.335Z,99.99
2016-06-12T00:30:37.338Z,99.99
2016-06-12T00:30:47.338Z,99.99
2016-06-12T00:30:57.338Z,99.99
2016-06-12T00:31:07.370Z,99.99
2016-06-12T00:31:17.354Z,99.99
2016-06-12T00:31:27.354Z,99.99
2016-06-12T00:31:37.374Z,99.99
2016-06-12T00:31:47.374Z,99.99
2016-06-12T00:31:57.389Z,99.99
2016-06-12T00:32:07.389Z,99.99
2016-06-12T00:32:17.389Z,99.99
2016-06-12T00:32:27.389Z,99.99
2016-06-12T00:32:37.408Z,99.99
2016-06-12T00:32:47.408Z,99.99
2016-06-12T00:32:57.408Z,99.99
2016-06-12T00:33:07.423Z,99.99
2016-06-12T00:33:17.423Z,99.99
2016-06-12T00:33:27.423Z,99.99
2016-06-12T00:33:37.443Z,99.99
2016-06-12T00:33:47.443Z,99.99
2016-06-12T00:33:57.443Z,99.99
2016-06-12T00:34:07.443Z,99.99
2016-06-12T00:34:17.459Z,99.99
2016-06-12T00:34:27.474Z,99.99
2016-06-12T00:34:37.477Z,99.99
2016-06-12T00:34:47.477Z,99.99
2016-06-12T00:34:57.852Z,99.99
2016-06-12T00:35:07.477Z,99.99
2016-06-12T00:35:17.759Z,99.99
2016-06-12T00:35:27.571Z,99.99
2016-06-12T00:35:37.558Z,99.99
2016-06-12T00:35:47.512Z,99.99
2016-06-12T00:35:57.512Z,99.99
2016-06-12T00:36:07.512Z,99.99
2016-06-12T00:36:17.527Z,99.99
2016-06-12T00:36:27.527Z,99.99
2016-06-12T00:36:37.531Z,99.99
2016-06-12T00:36:47.547Z,99.99
2016-06-12T00:36:57.547Z,99.99
2016-06-12T00:37:07.547Z,99.99
2016-06-12T00:37:17.547Z,99.99
2016-06-12T00:37:27.562Z,99.99
2016-06-12T00:37:37.565Z,99.99
2016-06-12T00:37:47.565Z,99.99
2016-06-12T00:37:57.581Z,99.99
2016-06-12T00:38:07.581Z,99.99
2016-06-12T00:38:17.581Z,99.99
2016-06-12T00:38:27.597Z,99.99
2016-06-12T00:38:37.600Z,99.99
2016-06-12T00:38:47.600Z,99.99
2016-06-12T00:38:57.615Z,99.99
2016-06-12T00:39:07.615Z,99.99
2016-06-12T00:39:17.615Z,99.99
2016-06-12T00:39:27.631Z,99.99
2016-06-12T00:39:37.635Z,99.99
2016-06-12T00:39:47.635Z,99.99
2016-06-12T00:39:57.635Z,99.99
2016-06-12T00:40:07.651Z,99.99
2016-06-12T00:40:17.651Z,99.99
2016-06-12T00:40:27.666Z,99.99
2016-06-12T00:40:37.668Z,99.99
2016-06-12T00:40:47.668Z,99.99
2016-06-12T00:40:57.668Z,99.99
2016-06-12T00:41:07.684Z,99.99
2016-06-12T00:41:17.684Z,99.99
2016-06-12T00:41:27.699Z,99.99
2016-06-12T00:41:37.703Z,99.99
2016-06-12T00:41:47.703Z,99.99
2016-06-12T00:41:57.703Z,99.99
2016-06-12T00:42:07.719Z,99.99
2016-06-12T00:42:17.719Z,99.99
2016-06-12T00:42:27.719Z,99.99
2016-06-12T00:42:37.737Z,99.99
2016-06-12T00:42:47.737Z,99.99
2016-06-12T00:42:57.737Z,99.99
2016-06-12T00:43:07.737Z,99.99
2016-06-12T00:43:17.752Z,99.99
2016-06-12T00:43:27.752Z,99.99
2016-06-12T00:43:37.756Z,99.99
2016-06-12T00:43:47.772Z,99.99
2016-06-12T00:43:57.772Z,99.99
2016-06-12T00:44:07.788Z,99.99
2016-06-12T00:44:17.788Z,99.99
2016-06-12T00:44:27.788Z,99.99
2016-06-12T00:44:37.791Z,99.99
2016-06-12T00:44:47.806Z,99.99
2016-06-12T00:44:57.806Z,99.99
2016-06-12T00:45:07.806Z,99.99
2016-06-12T00:45:17.822Z,99.99
2016-06-12T00:45:27.822Z,99.99
2016-06-12T00:45:37.825Z,99.99
2016-06-12T00:45:47.840Z,99.99
2016-06-12T00:45:57.840Z,99.99
2016-06-12T00:46:07.840Z,99.99
2016-06-12T00:46:17.856Z,99.99
2016-06-12T00:46:27.856Z,99.99
2016-06-12T00:46:37.859Z,99.99
2016-06-12T00:46:47.859Z,99.99
2016-06-12T00:46:57.875Z,99.99
2016-06-12T00:47:07.875Z,99.99
2016-06-12T00:47:17.875Z,99.99
2016-06-12T00:47:27.890Z,99.99
2016-06-12T00:47:37.893Z,99.99
2016-06-12T00:47:47.893Z,99.99
2016-06-12T00:47:57.909Z,99.99
2016-06-12T00:48:07.909Z,99.99
2016-06-12T00:48:17.909Z,99.99
2016-06-12T00:48:27.909Z,99.99
2016-06-12T00:48:37.928Z,99.99
2016-06-12T00:48:47.928Z,99.99
2016-06-12T00:48:57.943Z,99.99
2016-06-12T00:49:07.943Z,99.99
2016-06-12T00:49:17.943Z,99.99
2016-06-12T00:49:27.943Z,99.99
2016-06-12T00:49:37.963Z,99.99
2016-06-12T00:49:47.963Z,99.99
2016-06-12T00:49:57.963Z,99.99
2016-06-12T00:50:07.978Z,99.99
2016-06-12T00:50:17.978Z,99.99
2016-06-12T00:50:28.666Z,99.99
2016-06-12T00:50:37.996Z,99.99
2016-06-12T00:50:47.996Z,99.99
2016-06-12T00:50:57.996Z,99.99
2016-06-12T00:51:08.012Z,99.99
2016-06-12T00:51:18.012Z,99.99
2016-06-12T00:51:28.012Z,99.99
2016-06-12T00:51:38.031Z,99.99
2016-06-12T00:51:48.031Z,99.99
2016-06-12T00:51:58.047Z,99.99
2016-06-12T00:52:08.031Z,99.99
2016-06-12T00:52:18.047Z,99.99
2016-06-12T00:52:28.047Z,99.99
2016-06-12T00:52:38.049Z,99.99
2016-06-12T00:52:48.065Z,99.99
2016-06-12T00:52:58.080Z,99.99
2016-06-12T00:53:08.065Z,99.99
2016-06-12T00:53:18.080Z,99.99
2016-06-12T00:53:28.080Z,99.99
2016-06-12T00:53:38.100Z,99.99
2016-06-12T00:53:48.100Z,99.99
2016-06-12T00:53:58.100Z,99.99
2016-06-12T00:54:08.100Z,99.99
2016-06-12T00:54:18.115Z,99.99
2016-06-12T00:54:28.115Z,99.99
2016-06-12T00:54:38.118Z,99.99
2016-06-12T00:54:48.118Z,99.99
2016-06-12T00:54:58.134Z,99.99
2016-06-12T00:55:08.134Z,99.99
2016-06-12T00:55:18.134Z,99.99
2016-06-12T00:55:28.150Z,99.99
2016-06-12T00:55:38.167Z,99.99
2016-06-12T00:55:48.152Z,99.99
2016-06-12T00:55:58.167Z,99.99
2016-06-12T00:56:08.167Z,99.99
2016-06-12T00:56:18.167Z,99.99
2016-06-12T00:56:28.183Z,99.99
2016-06-12T00:56:38.187Z,99.99
2016-06-12T00:56:48.187Z,99.99
2016-06-12T00:56:58.203Z,99.99
2016-06-12T00:57:08.203Z,99.99
2016-06-12T00:57:18.203Z,99.99
2016-06-12T00:57:28.203Z,99.99
2016-06-12T00:57:38.221Z,99.99
2016-06-12T00:57:48.221Z,99.99
2016-06-12T00:57:58.221Z,99.99
2016-06-12T00:58:08.237Z,99.99
2016-06-12T00:58:18.237Z,99.99
2016-06-12T00:58:28.237Z,99.99
2016-06-12T00:58:38.255Z,99.99
2016-06-12T00:58:48.255Z,99.99
2016-06-12T00:58:58.255Z,99.99
2016-06-12T00:59:08.271Z,99.99
2016-06-12T00:59:18.271Z,99.99
2016-06-12T00:59:28.271Z,99.99
2016-06-12T00:59:38.290Z,99.99
2016-06-12T00:59:48.290Z,99.99
2016-06-12T00:59:58.290Z,99.99
2016-06-12T01:00:08.305Z,99.99
2016-06-12T01:00:18.305Z,99.99
2016-06-12T01:00:28.305Z,99.99
2016-06-12T01:00:38.308Z,99.99
2016-06-12T01:00:48.324Z,99.99
2016-06-12T01:00:58.324Z,99.99
2016-06-12T01:01:08.324Z,99.99
2016-06-12T01:01:18.340Z,99.99
2016-06-12T01:01:28.340Z,99.99
2016-06-12T01:01:38.358Z,99.99
2016-06-12T01:01:48.358Z,99.99
2016-06-12T01:01:58.358Z,99.99
2016-06-12T01:02:08.358Z,99.99
2016-06-12T01:02:18.374Z,99.99
2016-06-12T01:02:28.374Z,99.99
2016-06-12T01:02:38.377Z,99.99
2016-06-12T01:02:48.392Z,99.99
2016-06-12T01:02:58.392Z,99.99
2016-06-12T01:03:08.392Z,99.99
2016-06-12T01:03:18.408Z,99.99
2016-06-12T01:03:28.408Z,99.99
2016-06-12T01:03:38.412Z,99.99
2016-06-12T01:03:48.412Z,99.99
2016-06-12T01:03:58.428Z,99.99
2016-06-12T01:04:08.428Z,99.99
2016-06-12T01:04:18.428Z,99.99
2016-06-12T01:04:28.443Z,99.99
2016-06-12T01:04:38.445Z,99.99
2016-06-12T01:04:48.445Z,99.99
2016-06-12T01:04:58.492Z,99.99
2016-06-12T01:05:08.461Z,99.99
2016-06-12T01:05:18.461Z,99.99
2016-06-12T01:05:28.820Z,99.99
2016-06-12T01:05:38.480Z,99.99
2016-06-12T01:05:49.167Z,99.99
2016-06-12T01:05:58.480Z,99.99
2016-06-12T01:06:08.495Z,99.99
2016-06-12T01:06:18.495Z,99.99
2016-06-12T01:06:28.511Z,99.99
2016-06-12T01:06:38.514Z,99.99
2016-06-12T01:06:48.514Z,99.99
2016-06-12T01:06:58.514Z,99.99
2016-06-12T01:07:08.529Z,99.99
2016-06-12T01:07:18.529Z,99.99
2016-06-12T01:07:28.529Z,99.99
2016-06-12T01:07:38.549Z,99.99
2016-06-12T01:07:48.549Z,99.99
2016-06-12T01:07:58.549Z,99.99
2016-06-12T01:08:08.565Z,99.99
2016-06-12T01:08:18.565Z,99.99
2016-06-12T01:08:28.565Z,99.99
2016-06-12T01:08:38.567Z,99.99
2016-06-12T01:08:48.582Z,99.99
2016-06-12T01:08:58.582Z,99.99
2016-06-12T01:09:08.598Z,99.99
2016-06-12T01:09:18.598Z,99.99
2016-06-12T01:09:28.598Z,99.99
2016-06-12T01:09:38.602Z,99.99
2016-06-12T01:09:48.618Z,99.99
2016-06-12T01:09:58.618Z,99.99
2016-06-12T01:10:08.618Z,99.99
2016-06-12T01:10:18.633Z,99.99
2016-06-12T01:10:28.633Z,99.99
2016-06-12T01:10:38.636Z,99.99
2016-06-12T01:10:48.652Z,99.99
2016-06-12T01:10:58.652Z,99.99
2016-06-12T01:11:08.652Z,99.99
2016-06-12T01:11:18.652Z,99.99
2016-06-12T01:11:28.667Z,99.99
2016-06-12T01:11:38.669Z,99.99
2016-06-12T01:11:48.685Z,99.99
2016-06-12T01:11:58.685Z,99.99
2016-06-12T01:12:08.685Z,99.99
2016-06-12T01:12:18.685Z,99.99
2016-06-12T01:12:28.701Z,99.99
2016-06-12T01:12:38.705Z,99.99
2016-06-12T01:12:48.705Z,99.99
2016-06-12T01:12:58.720Z,99.99
2016-06-12T01:13:08.720Z,99.99
2016-06-12T01:13:18.720Z,99.99
2016-06-12T01:13:28.736Z,99.99
2016-06-12T01:13:38.739Z,99.99
2016-06-12T01:13:48.739Z,99.99
2016-06-12T01:13:58.755Z,99.99
2016-06-12T01:14:08.755Z,99.99
2016-06-12T01:14:18.755Z,99.99
2016-06-12T01:14:28.755Z,99.99
2016-06-12T01:14:38.773Z,99.99
2016-06-12T01:14:48.773Z,99.99
2016-06-12T01:14:58.773Z,99.99
2016-06-12T01:15:08.789Z,99.99
2016-06-12T01:15:18.789Z,99.99
2016-06-12T01:15:28.789Z,99.99
2016-06-12T01:15:38.808Z,99.99
2016-06-12T01:15:48.808Z,99.99
2016-06-12T01:15:58.808Z,99.99
2016-06-12T01:16:08.824Z,99.99
2016-06-12T01:16:18.824Z,99.99
2016-06-12T01:16:28.824Z,99.99
2016-06-12T01:16:38.842Z,99.99
2016-06-12T01:16:48.842Z,99.99
2016-06-12T01:16:58.842Z,99.99
2016-06-12T01:17:08.857Z,99.99
2016-06-12T01:17:18.857Z,99.99
2016-06-12T01:17:28.857Z,99.99
2016-06-12T01:17:38.877Z,99.99
2016-06-12T01:17:48.877Z,99.99
2016-06-12T01:17:58.877Z,99.99
2016-06-12T01:18:08.877Z,99.99
2016-06-12T01:18:18.893Z,99.99
2016-06-12T01:18:28.893Z,99.99
2016-06-12T01:18:38.895Z,99.99
2016-06-12T01:18:48.910Z,99.99
2016-06-12T01:18:58.910Z,99.99
2016-06-12T01:19:08.910Z,99.99
2016-06-12T01:19:18.926Z,99.99
2016-06-12T01:19:28.926Z,99.99
2016-06-12T01:19:38.929Z,99.99
2016-06-12T01:19:49.054Z,99.99
2016-06-12T01:19:58.944Z,99.99
2016-06-12T01:20:08.944Z,99.99
2016-06-12T01:20:18.944Z,99.99
2016-06-12T01:20:28.976Z,99.99
2016-06-12T01:20:38.963Z,99.99
2016-06-12T01:20:48.963Z,99.99
2016-06-12T01:20:58.979Z,99.99
2016-06-12T01:21:08.979Z,99.99
2016-06-12T01:21:18.979Z,99.99
2016-06-12T01:21:28.994Z,99.99
2016-06-12T01:21:38.997Z,99.99
2016-06-12T01:21:48.997Z,99.99
2016-06-12T01:21:59.013Z,99.99
2016-06-12T01:22:09.013Z,99.99
2016-06-12T01:22:19.013Z,99.99
2016-06-12T01:22:29.029Z,99.99
2016-06-12T01:22:39.033Z,99.99
2016-06-12T01:22:49.048Z,99.99
2016-06-12T01:22:59.033Z,99.99
2016-06-12T01:23:09.048Z,99.99
2016-06-12T01:23:19.048Z,99.99
2016-06-12T01:23:29.048Z,99.99
2016-06-12T01:23:39.067Z,99.99
2016-06-12T01:23:49.067Z,99.99
2016-06-12T01:23:59.082Z,99.99
2016-06-12T01:24:09.082Z,99.99
2016-06-12T01:24:19.082Z,99.99
2016-06-12T01:24:29.082Z,99.99
2016-06-12T01:24:39.085Z,99.99
2016-06-12T01:24:49.101Z,99.99
2016-06-12T01:24:59.101Z,99.99
2016-06-12T01:25:09.101Z,99.99
2016-06-12T01:25:19.117Z,99.99
2016-06-12T01:25:29.117Z,99.99
2016-06-12T01:25:39.120Z,99.99
2016-06-12T01:25:49.135Z,99.99
2016-06-12T01:25:59.135Z,99.99
2016-06-12T01:26:09.135Z,99.99
2016-06-12T01:26:19.151Z,99.99
2016-06-12T01:26:29.151Z,99.99
2016-06-12T01:26:39.170Z,99.99
2016-06-12T01:26:49.170Z,99.99
2016-06-12T01:26:59.170Z,99.99
2016-06-12T01:27:09.170Z,99.99
2016-06-12T01:27:19.185Z,99.99
2016-06-12T01:27:29.185Z,99.99
2016-06-12T01:27:39.188Z,99.99
2016-06-12T01:27:49.204Z,99.99
2016-06-12T01:27:59.204Z,99.99
2016-06-12T01:28:09.204Z,99.99
2016-06-12T01:28:19.204Z,99.99
2016-06-12T01:28:29.219Z,99.99
2016-06-12T01:28:39.222Z,99.99
2016-06-12T01:28:49.222Z,99.99
2016-06-12T01:28:59.238Z,99.99
2016-06-12T01:29:09.238Z,99.99
2016-06-12T01:29:19.238Z,99.99
2016-06-12T01:29:29.238Z,99.99
2016-06-12T01:29:39.257Z,99.99
2016-06-12T01:29:49.257Z,99.99
2016-06-12T01:29:59.272Z,99.99
2016-06-12T01:30:09.272Z,99.99
2016-06-12T01:30:19.272Z,99.99
2016-06-12T01:30:29.272Z,99.99
2016-06-12T01:30:39.292Z,99.99
2016-06-12T01:30:49.292Z,99.99
2016-06-12T01:30:59.292Z,99.99
2016-06-12T01:31:09.308Z,99.99
2016-06-12T01:31:19.308Z,99.99
2016-06-12T01:31:29.308Z,99.99
2016-06-12T01:31:39.325Z,99.99
2016-06-12T01:31:49.325Z,99.99
2016-06-12T01:31:59.325Z,99.99
2016-06-12T01:32:09.341Z,99.99
2016-06-12T01:32:19.341Z,99.99
2016-06-12T01:32:29.341Z,99.99
2016-06-12T01:32:39.344Z,99.99
2016-06-12T01:32:49.359Z,99.99
2016-06-12T01:32:59.359Z,99.99
2016-06-12T01:33:09.359Z,99.99
2016-06-12T01:33:19.375Z,99.99
2016-06-12T01:33:29.375Z,99.99
2016-06-12T01:33:39.379Z,99.99
2016-06-12T01:33:49.395Z,99.99
2016-06-12T01:33:59.395Z,99.99
2016-06-12T01:34:09.395Z,99.99
2016-06-12T01:34:19.410Z,99.99
2016-06-12T01:34:29.410Z,99.99
2016-06-12T01:34:39.413Z,99.99
2016-06-12T01:34:49.429Z,99.99
2016-06-12T01:34:59.429Z,99.99
2016-06-12T01:35:09.429Z,99.99
2016-06-12T01:35:19.445Z,99.99
2016-06-12T01:35:30.054Z,99.99
2016-06-12T01:35:39.448Z,99.99
2016-06-12T01:35:49.448Z,99.99
2016-06-12T01:35:59.463Z,99.99
2016-06-12T01:36:09.463Z,99.99
2016-06-12T01:36:19.463Z,99.99
2016-06-12T01:36:29.479Z,99.99
2016-06-12T01:36:39.482Z,99.99
2016-06-12T01:36:49.482Z,99.99
2016-06-12T01:36:59.497Z,99.99
2016-06-12T01:37:09.497Z,99.99
2016-06-12T01:37:19.497Z,99.99
2016-06-12T01:37:29.497Z,99.99
2016-06-12T01:37:39.516Z,99.99
2016-06-12T01:37:49.516Z,99.99
2016-06-12T01:37:59.516Z,99.99
2016-06-12T01:38:09.532Z,99.99
2016-06-12T01:38:19.532Z,99.99
2016-06-12T01:38:29.532Z,99.99
2016-06-12T01:38:39.550Z,99.99
2016-06-12T01:38:49.550Z,99.99
2016-06-12T01:38:59.550Z,99.99
2016-06-12T01:39:09.566Z,99.99
2016-06-12T01:39:19.566Z,99.99
2016-06-12T01:39:29.566Z,99.99
2016-06-12T01:39:39.585Z,99.99
2016-06-12T01:39:49.585Z,99.99
2016-06-12T01:39:59.585Z,99.99
2016-06-12T01:40:09.585Z,99.99
2016-06-12T01:40:19.600Z,99.99
2016-06-12T01:40:29.600Z,99.99
2016-06-12T01:40:39.604Z,99.99
2016-06-12T01:40:49.635Z,99.99
2016-06-12T01:40:59.620Z,99.99
2016-06-12T01:41:09.620Z,99.99
2016-06-12T01:41:19.635Z,99.99
2016-06-12T01:41:29.635Z,99.99
2016-06-12T01:41:39.637Z,99.99
2016-06-12T01:41:49.653Z,99.99
2016-06-12T01:41:59.669Z,99.99
2016-06-12T01:42:09.653Z,99.99
2016-06-12T01:42:19.669Z,99.99
2016-06-12T01:42:29.669Z,99.99
2016-06-12T01:42:39.672Z,99.99
2016-06-12T01:42:49.672Z,99.99
2016-06-12T01:42:59.687Z,99.99
2016-06-12T01:43:09.687Z,99.99
2016-06-12T01:43:19.703Z,99.99
2016-06-12T01:43:29.703Z,99.99
2016-06-12T01:43:39.706Z,99.99
2016-06-12T01:43:49.706Z,99.99
2016-06-12T01:43:59.722Z,99.99
2016-06-12T01:44:09.722Z,99.99
2016-06-12T01:44:19.722Z,99.99
2016-06-12T01:44:29.737Z,99.99
2016-06-12T01:44:39.741Z,99.99
2016-06-12T01:44:49.741Z,99.99
2016-06-12T01:44:59.741Z,99.99
2016-06-12T01:45:09.757Z,99.99
2016-06-12T01:45:19.757Z,99.99
2016-06-12T01:45:29.757Z,99.99
2016-06-12T01:45:39.775Z,99.99
2016-06-12T01:45:49.775Z,99.99
2016-06-12T01:45:59.791Z,99.99
2016-06-12T01:46:09.791Z,99.99
2016-06-12T01:46:19.807Z,99.99
2016-06-12T01:46:29.791Z,99.99
2016-06-12T01:46:39.809Z,99.99
2016-06-12T01:46:49.809Z,99.99
2016-06-12T01:46:59.809Z,99.99
2016-06-12T01:47:09.824Z,99.99
2016-06-12T01:47:19.824Z,99.99
2016-06-12T01:47:29.824Z,99.99
2016-06-12T01:47:39.844Z,99.99
2016-06-12T01:47:49.844Z,99.99
2016-06-12T01:47:59.844Z,99.99
2016-06-12T01:48:09.844Z,99.99
2016-06-12T01:48:19.860Z,99.99
2016-06-12T01:48:29.860Z,99.99
2016-06-12T01:48:39.863Z,99.99
2016-06-12T01:48:49.878Z,99.99
2016-06-12T01:48:59.878Z,99.99
2016-06-12T01:49:09.878Z,99.99
2016-06-12T01:49:19.894Z,99.99
2016-06-12T01:49:29.894Z,99.99
2016-06-12T01:49:39.897Z,99.99
2016-06-12T01:49:49.897Z,99.99
2016-06-12T01:49:59.975Z,99.99
2016-06-12T01:50:09.912Z,99.99
2016-06-12T01:50:20.147Z,99.99
2016-06-12T01:50:29.928Z,99.99
2016-06-12T01:50:39.947Z,99.99
2016-06-12T01:50:49.931Z,99.99
2016-06-12T01:50:59.947Z,99.99
2016-06-12T01:51:09.947Z,99.99
2016-06-12T01:51:19.947Z,99.99
2016-06-12T01:51:29.962Z,99.99
2016-06-12T01:51:39.965Z,99.99
2016-06-12T01:51:49.965Z,99.99
2016-06-12T01:51:59.981Z,99.99
2016-06-12T01:52:09.981Z,99.99
2016-06-12T01:52:19.981Z,99.99
2016-06-12T01:52:29.997Z,99.99
2016-06-12T01:52:40.000Z,99.99
2016-06-12T01:52:50.000Z,99.99
2016-06-12T01:53:00.000Z,99.99
2016-06-12T01:53:10.015Z,99.99
2016-06-12T01:53:20.015Z,99.99
2016-06-12T01:53:30.015Z,99.99
2016-06-12T01:53:40.034Z,99.99
2016-06-12T01:53:50.034Z,99.99
2016-06-12T01:54:00.034Z,99.99
2016-06-12T01:54:10.049Z,99.99
2016-06-12T01:54:20.049Z,99.99
2016-06-12T01:54:30.049Z,99.99
2016-06-12T01:54:40.069Z,99.99
2016-06-12T01:54:50.069Z,99.99
2016-06-12T01:55:00.069Z,99.99
2016-06-12T01:55:10.085Z,99.99
2016-06-12T01:55:20.085Z,99.99
2016-06-12T01:55:30.085Z,99.99
2016-06-12T01:55:40.102Z,99.99
2016-06-12T01:55:50.102Z,99.99
2016-06-12T01:56:00.102Z,99.99
2016-06-12T01:56:10.102Z,99.99
2016-06-12T01:56:20.118Z,99.99
2016-06-12T01:56:30.118Z,99.99
2016-06-12T01:56:40.121Z,99.99
2016-06-12T01:56:50.137Z,99.99
2016-06-12T01:57:00.152Z,99.99
2016-06-12T01:57:10.137Z,99.99
2016-06-12T01:57:20.152Z,99.99
2016-06-12T01:57:30.152Z,99.99
2016-06-12T01:57:40.156Z,99.99
2016-06-12T01:57:50.172Z,99.99
2016-06-12T01:58:00.172Z,99.99
2016-06-12T01:58:10.172Z,99.99
2016-06-12T01:58:20.172Z,99.99
2016-06-12T01:58:30.187Z,99.99
2016-06-12T01:58:40.189Z,99.99
2016-06-12T01:58:50.189Z,99.99
2016-06-12T01:59:00.205Z,99.99
2016-06-12T01:59:10.205Z,99.99
2016-06-12T01:59:20.205Z,99.99
2016-06-12T01:59:30.221Z,99.99
2016-06-12T01:59:40.225Z,99.99
2016-06-12T01:59:50.225Z,99.99
2016-06-12T02:00:00.240Z,99.99
2016-06-12T02:00:10.240Z,99.99
2016-06-12T02:00:20.256Z,99.99
2016-06-12T02:00:30.334Z,99.99
2016-06-12T02:00:40.306Z,99.99
2016-06-12T02:00:50.337Z,99.99
2016-06-12T02:01:00.306Z,99.99
2016-06-12T02:01:10.571Z,99.99
2016-06-12T02:01:20.759Z,99.99
2016-06-12T02:01:30.368Z,99.99
2016-06-12T02:01:40.324Z,99.99
2016-06-12T02:01:50.309Z,99.99
2016-06-12T02:02:00.324Z,99.99
2016-06-12T02:02:10.340Z,99.99
2016-06-12T02:02:20.340Z,99.99
2016-06-12T02:02:30.309Z,99.99
2016-06-12T02:02:40.343Z,99.99
2016-06-12T02:02:50.327Z,99.99
2016-06-12T02:03:00.406Z,99.99
2016-06-12T02:03:10.343Z,99.99
2016-06-12T02:03:20.343Z,99.99
2016-06-12T02:03:30.343Z,99.99
2016-06-12T02:03:40.346Z,99.99
2016-06-12T02:03:50.362Z,99.99
2016-06-12T02:04:00.362Z,99.99
2016-06-12T02:04:10.362Z,99.99
2016-06-12T02:04:20.377Z,99.99
2016-06-12T02:04:30.377Z,99.99
2016-06-12T02:04:40.380Z,99.99
2016-06-12T02:04:50.396Z,99.99
2016-06-12T02:05:00.396Z,99.99
2016-06-12T02:05:10.396Z,99.99
2016-06-12T02:05:20.396Z,99.99
2016-06-12T02:05:30.412Z,99.99
2016-06-12T02:05:40.415Z,99.99
2016-06-12T02:05:50.415Z,99.99
2016-06-12T02:06:00.430Z,99.99
2016-06-12T02:06:10.446Z,99.99
2016-06-12T02:06:20.430Z,99.99
2016-06-12T02:06:30.446Z,99.99
2016-06-12T02:06:40.449Z,99.99
2016-06-12T02:06:51.433Z,99.99
2016-06-12T02:07:00.464Z,99.99
2016-06-12T02:07:10.464Z,99.99
2016-06-12T02:07:20.464Z,99.99
2016-06-12T02:07:30.480Z,99.99
2016-06-12T02:07:40.483Z,99.99
2016-06-12T02:07:50.483Z,99.99
2016-06-12T02:08:00.483Z,99.99
2016-06-12T02:08:10.499Z,99.99
2016-06-12T02:08:20.499Z,99.99
2016-06-12T02:08:30.514Z,99.99
2016-06-12T02:08:40.518Z,99.99
2016-06-12T02:08:50.518Z,99.99